sensor_id;sensor_type;location;lat;lon;timestamp;pressure;altitude;pressure_sealevel;temperature;humidity
58955;BME280;45815;52.334;5.024;2023-07-13T00:01:44;101336.56;;;18.36;100.00
58955;BME280;45815;52.334;5.024;2023-07-13T00:04:11;101336.53;;;18.39;100.00
58955;BME280;45815;52.334;5.024;2023-07-13T00:06:37;101336.53;;;18.38;100.00
58955;BME280;45815;52.334;5.024;2023-07-13T00:09:03;101333.00;;;18.32;100.00
58955;BME280;45815;52.334;5.024;2023-07-13T00:11:28;101335.66;;;18.32;100.00
58955;BME280;45815;52.334;5.024;2023-07-13T00:13:54;101331.28;;;18.25;100.00
58955;BME280;45815;52.334;5.024;2023-07-13T00:16:20;101326.88;;;18.20;100.00
58955;BME280;45815;52.334;5.024;2023-07-13T00:18:46;101342.84;;;18.15;100.00
58955;BME280;45815;52.334;5.024;2023-07-13T00:21:12;101334.88;;;18.13;100.00
58955;BME280;45815;52.334;5.024;2023-07-13T00:23:40;101335.78;;;18.11;100.00
58955;BME280;45815;52.334;5.024;2023-07-13T00:26:08;101334.88;;;18.07;100.00
58955;BME280;45815;52.334;5.024;2023-07-13T00:28:34;101337.56;;;18.04;100.00
58955;BME280;45815;52.334;5.024;2023-07-13T00:31:01;101337.59;;;18.03;100.00
58955;BME280;45815;52.334;5.024;2023-07-13T00:33:32;101330.50;;;17.96;100.00
58955;BME280;45815;52.334;5.024;2023-07-13T00:35:58;101335.81;;;18.02;100.00
58955;BME280;45815;52.334;5.024;2023-07-13T00:38:25;101342.00;;;17.99;100.00
58955;BME280;45815;52.334;5.024;2023-07-13T00:40:50;101338.47;;;18.00;100.00
58955;BME280;45815;52.334;5.024;2023-07-13T00:43:19;101334.94;;;18.01;100.00
58955;BME280;45815;52.334;5.024;2023-07-13T00:48:13;101342.00;;;18.04;100.00
58955;BME280;45815;52.334;5.024;2023-07-13T00:50:40;101337.59;;;18.00;100.00
58955;BME280;45815;52.334;5.024;2023-07-13T00:53:07;101341.13;;;17.99;100.00
58955;BME280;45815;52.334;5.024;2023-07-13T00:55:36;101349.09;;;17.96;100.00
58955;BME280;45815;52.334;5.024;2023-07-13T00:58:02;101336.72;;;17.93;100.00
58955;BME280;45815;52.334;5.024;2023-07-13T01:00:35;101335.84;;;17.89;100.00
58955;BME280;45815;52.334;5.024;2023-07-13T01:03:02;101339.41;;;17.87;100.00
58955;BME280;45815;52.334;5.024;2023-07-13T01:05:33;101339.41;;;17.85;100.00
58955;BME280;45815;52.334;5.024;2023-07-13T01:08:01;101336.75;;;17.81;100.00
58955;BME280;45815;52.334;5.024;2023-07-13T01:10:27;101336.75;;;17.81;100.00
58955;BME280;45815;52.334;5.024;2023-07-13T01:12:53;101337.63;;;17.78;100.00
58955;BME280;45815;52.334;5.024;2023-07-13T01:15:41;101347.38;;;17.73;100.00
58955;BME280;45815;52.334;5.024;2023-07-13T01:18:09;101356.22;;;17.78;100.00
58955;BME280;45815;52.334;5.024;2023-07-13T01:20:37;101350.03;;;17.81;100.00
58955;BME280;45815;52.334;5.024;2023-07-13T01:23:11;101355.34;;;17.78;100.00
58955;BME280;45815;52.334;5.024;2023-07-13T01:25:41;101350.00;;;17.79;100.00
58955;BME280;45815;52.334;5.024;2023-07-13T01:28:08;101357.97;;;17.79;100.00
58955;BME280;45815;52.334;5.024;2023-07-13T01:30:39;101359.78;;;17.72;100.00
58955;BME280;45815;52.334;5.024;2023-07-13T01:33:09;101352.69;;;17.68;100.00
58955;BME280;45815;52.334;5.024;2023-07-13T01:35:35;101355.34;;;17.68;100.00
58955;BME280;45815;52.334;5.024;2023-07-13T01:38:01;101353.56;;;17.63;100.00
58955;BME280;45815;52.334;5.024;2023-07-13T01:40:28;101350.06;;;17.64;100.00
58955;BME280;45815;52.334;5.024;2023-07-13T01:42:57;101353.56;;;17.63;100.00
58955;BME280;45815;52.334;5.024;2023-07-13T01:45:22;101357.13;;;17.62;100.00
58955;BME280;45815;52.334;5.024;2023-07-13T01:47:48;101358.91;;;17.60;100.00
58955;BME280;45815;52.334;5.024;2023-07-13T01:50:13;101362.44;;;17.60;100.00
58955;BME280;45815;52.334;5.024;2023-07-13T01:52:39;101355.34;;;17.62;100.00
58955;BME280;45815;52.334;5.024;2023-07-13T01:55:05;101349.19;;;17.45;100.00
58955;BME280;45815;52.334;5.024;2023-07-13T01:57:31;101364.25;;;17.54;100.00
58955;BME280;45815;52.334;5.024;2023-07-13T01:59:56;101367.75;;;17.52;100.00
58955;BME280;45815;52.334;5.024;2023-07-13T02:02:22;101371.31;;;17.51;100.00
58955;BME280;45815;52.334;5.024;2023-07-13T02:04:47;101363.34;;;17.51;100.00
58955;BME280;45815;52.334;5.024;2023-07-13T02:07:13;101366.88;;;17.43;100.00
58955;BME280;45815;52.334;5.024;2023-07-13T02:09:40;101358.94;;;17.44;100.00
58955;BME280;45815;52.334;5.024;2023-07-13T02:12:06;101365.13;;;17.45;100.00
58955;BME280;45815;52.334;5.024;2023-07-13T02:14:32;101370.41;;;17.43;100.00
58955;BME280;45815;52.334;5.024;2023-07-13T02:16:58;101377.50;;;17.41;100.00
58955;BME280;45815;52.334;5.024;2023-07-13T02:19:23;101371.31;;;17.38;100.00
58955;BME280;45815;52.334;5.024;2023-07-13T02:21:49;101373.09;;;17.36;100.00
58955;BME280;45815;52.334;5.024;2023-07-13T02:24:16;101373.97;;;17.33;100.00
58955;BME280;45815;52.334;5.024;2023-07-13T02:26:43;101382.81;;;17.32;100.00
58955;BME280;45815;52.334;5.024;2023-07-13T02:29:10;101379.25;;;17.30;100.00
58955;BME280;45815;52.334;5.024;2023-07-13T02:31:35;101376.59;;;17.25;100.00
58955;BME280;45815;52.334;5.024;2023-07-13T02:34:01;101377.50;;;17.20;100.00
58955;BME280;45815;52.334;5.024;2023-07-13T02:36:28;101369.56;;;17.17;100.00
58955;BME280;45815;52.334;5.024;2023-07-13T02:38:53;101364.22;;;17.11;100.00
58955;BME280;45815;52.334;5.024;2023-07-13T02:41:19;101372.19;;;17.18;100.00
58955;BME280;45815;52.334;5.024;2023-07-13T02:43:45;101374.84;;;17.17;100.00
58955;BME280;45815;52.334;5.024;2023-07-13T02:46:11;101377.50;;;17.15;100.00
58955;BME280;45815;52.334;5.024;2023-07-13T02:48:38;101377.50;;;17.12;100.00
58955;BME280;45815;52.334;5.024;2023-07-13T02:51:04;101366.00;;;17.04;100.00
58955;BME280;45815;52.334;5.024;2023-07-13T02:53:30;101377.50;;;17.04;100.00
58955;BME280;45815;52.334;5.024;2023-07-13T02:55:56;101378.38;;;17.06;100.00
58955;BME280;45815;52.334;5.024;2023-07-13T02:58:22;101377.50;;;17.06;100.00
58955;BME280;45815;52.334;5.024;2023-07-13T03:00:48;101383.69;;;17.05;100.00
58955;BME280;45815;52.334;5.024;2023-07-13T03:03:16;101381.91;;;17.04;100.00
58955;BME280;45815;52.334;5.024;2023-07-13T03:05:43;101381.03;;;17.03;100.00
58955;BME280;45815;52.334;5.024;2023-07-13T03:08:11;101386.31;;;17.02;100.00
58955;BME280;45815;52.334;5.024;2023-07-13T03:10:38;101375.69;;;16.97;100.00
58955;BME280;45815;52.334;5.024;2023-07-13T03:13:07;101365.09;;;16.85;100.00
58955;BME280;45815;52.334;5.024;2023-07-13T03:15:33;101378.38;;;16.91;100.00
58955;BME280;45815;52.334;5.024;2023-07-13T03:17:59;101380.13;;;16.94;100.00
58955;BME280;45815;52.334;5.024;2023-07-13T03:20:24;101378.38;;;16.91;100.00
58955;BME280;45815;52.334;5.024;2023-07-13T03:22:50;101377.47;;;16.86;100.00
58955;BME280;45815;52.334;5.024;2023-07-13T03:25:16;101370.41;;;16.82;100.00
58955;BME280;45815;52.334;5.024;2023-07-13T03:27:42;101385.44;;;16.86;100.00
58955;BME280;45815;52.334;5.024;2023-07-13T03:30:09;101387.19;;;16.87;100.00
58955;BME280;45815;52.334;5.024;2023-07-13T03:32:35;101378.34;;;16.79;100.00
58955;BME280;45815;52.334;5.024;2023-07-13T03:35:00;101385.44;;;16.81;100.00
58955;BME280;45815;52.334;5.024;2023-07-13T03:37:28;101377.41;;;16.78;100.00
58955;BME280;45815;52.334;5.024;2023-07-13T03:39:54;101383.66;;;16.79;100.00
58955;BME280;45815;52.334;5.024;2023-07-13T03:42:20;101394.19;;;16.73;100.00
58955;BME280;45815;52.334;5.024;2023-07-13T03:44:45;101388.91;;;16.70;100.00
58955;BME280;45815;52.334;5.024;2023-07-13T03:47:17;101369.44;;;16.61;100.00
58955;BME280;45815;52.334;5.024;2023-07-13T03:49:44;101393.28;;;16.63;100.00
58955;BME280;45815;52.334;5.024;2023-07-13T03:52:11;101400.34;;;16.64;100.00
58955;BME280;45815;52.334;5.024;2023-07-13T03:54:37;101399.47;;;16.59;100.00
58955;BME280;45815;52.334;5.024;2023-07-13T03:57:02;101403.88;;;16.57;100.00
58955;BME280;45815;52.334;5.024;2023-07-13T03:59:31;101391.50;;;16.54;100.00
58955;BME280;45815;52.334;5.024;2023-07-13T04:01:56;101395.94;;;16.55;100.00
58955;BME280;45815;52.334;5.024;2023-07-13T04:04:22;101388.81;;;16.50;100.00
58955;BME280;45815;52.334;5.024;2023-07-13T04:06:47;101399.44;;;16.54;100.00
58955;BME280;45815;52.334;5.024;2023-07-13T04:09:13;101406.53;;;16.55;100.00
58955;BME280;45815;52.334;5.024;2023-07-13T04:11:39;101399.44;;;16.54;100.00
58955;BME280;45815;52.334;5.024;2023-07-13T04:14:05;101387.97;;;16.51;100.00
58955;BME280;45815;52.334;5.024;2023-07-13T04:16:32;101415.38;;;16.63;100.00
58955;BME280;45815;52.334;5.024;2023-07-13T04:18:58;101410.06;;;16.63;100.00
58955;BME280;45815;52.334;5.024;2023-07-13T04:21:31;101418.00;;;16.62;100.00
58955;BME280;45815;52.334;5.024;2023-07-13T04:23:57;101422.44;;;16.64;100.00
58955;BME280;45815;52.334;5.024;2023-07-13T04:26:22;101412.72;;;16.56;100.00
58955;BME280;45815;52.334;5.024;2023-07-13T04:28:49;101415.38;;;16.63;100.00
58955;BME280;45815;52.334;5.024;2023-07-13T04:31:15;101421.56;;;16.62;100.00
58955;BME280;45815;52.334;5.024;2023-07-13T04:33:41;101433.06;;;16.71;100.00
58955;BME280;45815;52.334;5.024;2023-07-13T04:36:09;101418.91;;;16.65;100.00
58955;BME280;45815;52.334;5.024;2023-07-13T04:38:35;101422.44;;;16.61;100.00
58955;BME280;45815;52.334;5.024;2023-07-13T04:41:02;101435.72;;;16.72;100.00
58955;BME280;45815;52.334;5.024;2023-07-13T04:43:29;101441.03;;;16.78;100.00
58955;BME280;45815;52.334;5.024;2023-07-13T04:45:55;101444.63;;;16.79;100.00
58955;BME280;45815;52.334;5.024;2023-07-13T04:48:22;101445.53;;;16.84;100.00
58955;BME280;45815;52.334;5.024;2023-07-13T04:50:48;101446.41;;;16.84;100.00
58955;BME280;45815;52.334;5.024;2023-07-13T04:53:19;101449.06;;;16.89;100.00
58955;BME280;45815;52.334;5.024;2023-07-13T04:55:44;101442.00;;;16.91;100.00
58955;BME280;45815;52.334;5.024;2023-07-13T04:58:10;101452.59;;;16.97;100.00
58955;BME280;45815;52.334;5.024;2023-07-13T05:00:36;101456.19;;;17.02;100.00
58955;BME280;45815;52.334;5.024;2023-07-13T05:03:02;101457.97;;;17.13;100.00
58955;BME280;45815;52.334;5.024;2023-07-13T05:05:28;101452.66;;;17.17;100.00
58955;BME280;45815;52.334;5.024;2023-07-13T05:07:54;101449.09;;;17.14;100.00
58955;BME280;45815;52.334;5.024;2023-07-13T05:10:20;101459.72;;;17.23;100.00
58955;BME280;45815;52.334;5.024;2023-07-13T05:12:45;101448.25;;;17.25;100.00
58955;BME280;45815;52.334;5.024;2023-07-13T05:15:11;101461.50;;;17.30;100.00
58955;BME280;45815;52.334;5.024;2023-07-13T05:17:37;101462.41;;;17.32;100.00
58955;BME280;45815;52.334;5.024;2023-07-13T05:20:05;101465.94;;;17.29;100.00
58955;BME280;45815;52.334;5.024;2023-07-13T05:22:31;101459.75;;;17.26;100.00
58955;BME280;45815;52.334;5.024;2023-07-13T05:24:56;101465.94;;;17.29;100.00
58955;BME280;45815;52.334;5.024;2023-07-13T05:27:22;101468.63;;;17.33;100.00
58955;BME280;45815;52.334;5.024;2023-07-13T05:29:49;101473.03;;;17.37;100.00
58955;BME280;45815;52.334;5.024;2023-07-13T05:32:14;101479.22;;;17.40;100.00
58955;BME280;45815;52.334;5.024;2023-07-13T05:34:40;101480.09;;;17.44;100.00
58955;BME280;45815;52.334;5.024;2023-07-13T05:37:05;101481.00;;;17.50;100.00
58955;BME280;45815;52.334;5.024;2023-07-13T05:39:31;101481.91;;;17.52;100.00
58955;BME280;45815;52.334;5.024;2023-07-13T05:41:56;101481.91;;;17.52;100.00
58955;BME280;45815;52.334;5.024;2023-07-13T05:44:22;101486.31;;;17.61;100.00
58955;BME280;45815;52.334;5.024;2023-07-13T05:46:50;101483.66;;;17.64;100.00
58955;BME280;45815;52.334;5.024;2023-07-13T05:49:16;101468.63;;;17.62;100.00
58955;BME280;45815;52.334;5.024;2023-07-13T05:51:41;101484.56;;;17.71;100.00
58955;BME280;45815;52.334;5.024;2023-07-13T05:54:07;101489.00;;;17.80;100.00
58955;BME280;45815;52.334;5.024;2023-07-13T05:56:32;101492.53;;;17.80;100.00
58955;BME280;45815;52.334;5.024;2023-07-13T05:58:58;101489.00;;;17.83;100.00
58955;BME280;45815;52.334;5.024;2023-07-13T06:01:23;101496.97;;;17.87;100.00
58955;BME280;45815;52.334;5.024;2023-07-13T06:03:50;101496.09;;;17.85;100.00
58955;BME280;45815;52.334;5.024;2023-07-13T06:06:16;101497.00;;;17.89;100.00
58955;BME280;45815;52.334;5.024;2023-07-13T06:08:41;101501.38;;;17.93;100.00
58955;BME280;45815;52.334;5.024;2023-07-13T06:11:17;101505.81;;;18.02;100.00
58955;BME280;45815;52.334;5.024;2023-07-13T06:13:44;101489.88;;;17.96;100.00
58955;BME280;45815;52.334;5.024;2023-07-13T06:16:13;101491.63;;;18.04;100.00
58955;BME280;45815;52.334;5.024;2023-07-13T06:18:40;101504.03;;;18.19;100.00
58955;BME280;45815;52.334;5.024;2023-07-13T06:23:34;101495.16;;;18.20;100.00
58955;BME280;45815;52.334;5.024;2023-07-13T06:26:00;101506.63;;;18.39;100.00
58955;BME280;45815;52.334;5.024;2023-07-13T06:28:26;101505.72;;;18.51;100.00
58955;BME280;45815;52.334;5.024;2023-07-13T06:30:51;101509.25;;;18.59;100.00
58955;BME280;45815;52.334;5.024;2023-07-13T06:33:17;101498.56;;;18.65;100.00
58955;BME280;45815;52.334;5.024;2023-07-13T06:35:42;101496.78;;;18.73;100.00
58955;BME280;45815;52.334;5.024;2023-07-13T06:38:08;101490.53;;;18.88;100.00
58955;BME280;45815;52.334;5.024;2023-07-13T06:40:34;101489.56;;;19.00;100.00
58955;BME280;45815;52.334;5.024;2023-07-13T06:42:59;101488.63;;;19.12;100.00
58955;BME280;45815;52.334;5.024;2023-07-13T06:45:25;101480.59;;;19.23;100.00
58955;BME280;45815;52.334;5.024;2023-07-13T06:47:50;101492.97;;;19.30;100.00
58955;BME280;45815;52.334;5.024;2023-07-13T06:50:16;101492.09;;;19.29;100.00
58955;BME280;45815;52.334;5.024;2023-07-13T06:52:41;101489.41;;;19.28;100.00
58955;BME280;45815;52.334;5.024;2023-07-13T06:55:07;101488.56;;;19.19;100.00
58955;BME280;45815;52.334;5.024;2023-07-13T06:57:33;101496.56;;;19.19;100.00
58955;BME280;45815;52.334;5.024;2023-07-13T06:59:59;101493.91;;;19.18;100.00
58955;BME280;45815;52.334;5.024;2023-07-13T07:02:24;101503.69;;;19.14;100.00
58955;BME280;45815;52.334;5.024;2023-07-13T07:04:50;101514.34;;;19.14;100.00
58955;BME280;45815;52.334;5.024;2023-07-13T07:07:15;101332.22;;;18.12;100.00
58955;BME280;45815;52.334;5.024;2023-07-13T07:09:41;101518.78;;;19.12;100.00
58955;BME280;45815;52.334;5.024;2023-07-13T07:12:07;101522.31;;;19.17;100.00
58955;BME280;45815;52.334;5.024;2023-07-13T07:14:32;101523.19;;;19.16;100.00
58955;BME280;45815;52.334;5.024;2023-07-13T07:16:59;101516.09;;;19.17;100.00
58955;BME280;45815;52.334;5.024;2023-07-13T07:19:25;101519.66;;;19.16;100.00
58955;BME280;45815;52.334;5.024;2023-07-13T07:21:50;101532.00;;;19.28;100.00
58955;BME280;45815;52.334;5.024;2023-07-13T07:24:16;101539.09;;;19.32;100.00
58955;BME280;45815;52.334;5.024;2023-07-13T07:26:42;101524.84;;;19.39;100.00
58955;BME280;45815;52.334;5.024;2023-07-13T07:29:07;101528.31;;;19.50;100.00
58955;BME280;45815;52.334;5.024;2023-07-13T07:31:36;101524.72;;;19.57;100.00
58955;BME280;45815;52.334;5.024;2023-07-13T07:34:02;101520.19;;;19.69;100.00
58955;BME280;45815;52.334;5.024;2023-07-13T07:36:28;101526.41;;;19.68;100.00
58955;BME280;45815;52.334;5.024;2023-07-13T07:38:56;101519.31;;;19.67;100.00
58955;BME280;45815;52.334;5.024;2023-07-13T07:41:22;101522.88;;;19.67;100.00
58955;BME280;45815;52.334;5.024;2023-07-13T07:43:47;101524.66;;;19.65;100.00
58955;BME280;45815;52.334;5.024;2023-07-13T07:46:13;101529.97;;;19.68;100.00
58955;BME280;45815;52.334;5.024;2023-07-13T07:48:38;101531.72;;;19.71;100.00
58955;BME280;45815;52.334;5.024;2023-07-13T07:51:04;101533.50;;;19.75;100.00
58955;BME280;45815;52.334;5.024;2023-07-13T07:53:30;101524.59;;;19.79;100.00
58955;BME280;45815;52.334;5.024;2023-07-13T07:55:56;101518.34;;;19.81;100.00
58955;BME280;45815;52.334;5.024;2023-07-13T07:58:22;101521.75;;;19.97;100.00
58955;BME280;45815;52.334;5.024;2023-07-13T08:00:51;101458.06;;;19.70;100.00
58955;BME280;45815;52.334;5.024;2023-07-13T08:03:17;101525.16;;;20.13;100.00
58955;BME280;45815;52.334;5.024;2023-07-13T08:05:42;101526.06;;;20.14;100.00
58955;BME280;45815;52.334;5.024;2023-07-13T08:08:08;101511.81;;;20.15;100.00
58955;BME280;45815;52.334;5.024;2023-07-13T08:10:35;101525.78;;;20.38;100.00
58955;BME280;45815;52.334;5.024;2023-07-13T08:13:01;101522.06;;;20.55;100.00
58955;BME280;45815;52.334;5.024;2023-07-13T08:15:27;101521.81;;;20.76;100.00
58955;BME280;45815;52.334;5.024;2023-07-13T08:17:53;101518.88;;;20.99;100.00
58955;BME280;45815;52.334;5.024;2023-07-13T08:20:20;101513.06;;;21.33;100.00
58955;BME280;45815;52.334;5.024;2023-07-13T08:22:49;101519.78;;;21.62;100.00
58955;BME280;45815;52.334;5.024;2023-07-13T08:25:14;101514.13;;;21.80;100.00
58955;BME280;45815;52.334;5.024;2023-07-13T08:27:40;101536.53;;;21.71;100.00
58955;BME280;45815;52.334;5.024;2023-07-13T08:30:06;101527.44;;;21.85;100.00
58955;BME280;45815;52.334;5.024;2023-07-13T08:32:33;101519.19;;;21.99;100.00
58955;BME280;45815;52.334;5.024;2023-07-13T08:34:59;101528.22;;;21.90;100.00
58955;BME280;45815;52.334;5.024;2023-07-13T08:37:24;101524.47;;;22.00;100.00
58955;BME280;45815;52.334;5.024;2023-07-13T08:39:50;101533.94;;;22.20;100.00
58955;BME280;45815;52.334;5.024;2023-07-13T08:47:44;101527.25;;;22.45;100.00
58955;BME280;45815;52.334;5.024;2023-07-13T08:50:23;101538.41;;;22.21;100.00
58955;BME280;45815;52.334;5.024;2023-07-13T08:52:52;101529.81;;;22.02;100.00
58955;BME280;45815;52.334;5.024;2023-07-13T08:55:22;101539.81;;;21.89;100.00
58955;BME280;45815;52.334;5.024;2023-07-13T08:58:02;101531.69;;;21.95;100.00
58955;BME280;45815;52.334;5.024;2023-07-13T09:00:37;101548.59;;;22.48;100.00
58955;BME280;45815;52.334;5.024;2023-07-13T09:03:12;101544.19;;;22.89;100.00
58955;BME280;45815;52.334;5.024;2023-07-13T09:05:41;101524.31;;;23.04;100.00
58955;BME280;45815;52.334;5.024;2023-07-13T09:08:16;101540.25;;;23.48;100.00
58955;BME280;45815;52.334;5.024;2023-07-13T09:10:46;101546.19;;;23.23;100.00
58955;BME280;45815;52.334;5.024;2023-07-13T09:13:31;101542.03;;;23.08;100.00
58955;BME280;45815;52.334;5.024;2023-07-13T09:16:03;101536.91;;;23.39;100.00
58955;BME280;45815;52.334;5.024;2023-07-13T09:18:47;101552.03;;;23.41;100.00
58955;BME280;45815;52.334;5.024;2023-07-13T09:21:20;101544.66;;;23.50;100.00
58955;BME280;45815;52.334;5.024;2023-07-13T09:23:53;101548.16;;;23.93;100.00
58955;BME280;45815;52.334;5.024;2023-07-13T09:26:21;101545.66;;;24.19;100.00
58955;BME280;45815;52.334;5.024;2023-07-13T09:28:55;101550.69;;;24.32;100.00
58955;BME280;45815;52.334;5.024;2023-07-13T09:31:45;101554.06;;;24.40;100.00
58955;BME280;45815;52.334;5.024;2023-07-13T09:34:15;101554.16;;;24.02;100.00
58955;BME280;45815;52.334;5.024;2023-07-13T09:36:42;101564.00;;;24.36;100.00
58955;BME280;45815;52.334;5.024;2023-07-13T09:44:27;101562.94;;;25.06;100.00
58955;BME280;45815;52.334;5.024;2023-07-13T09:46:56;101569.84;;;24.85;100.00
58955;BME280;45815;52.334;5.024;2023-07-13T09:49:27;101567.66;;;24.67;100.00
58955;BME280;45815;52.334;5.024;2023-07-13T09:52:00;101562.88;;;24.45;100.00
58955;BME280;45815;52.334;5.024;2023-07-13T09:54:27;101571.28;;;24.66;100.00
58955;BME280;45815;52.334;5.024;2023-07-13T09:57:03;101570.38;;;24.65;100.00
58955;BME280;45815;52.334;5.024;2023-07-13T09:59:34;101571.69;;;24.83;100.00
58955;BME280;45815;52.334;5.024;2023-07-13T10:02:00;101569.84;;;24.85;100.00
58955;BME280;45815;52.334;5.024;2023-07-13T10:04:32;101577.34;;;25.03;99.97
58955;BME280;45815;52.334;5.024;2023-07-13T10:07:07;101578.47;;;24.96;99.25
58955;BME280;45815;52.334;5.024;2023-07-13T10:09:34;101571.88;;;25.06;98.43
58955;BME280;45815;52.334;5.024;2023-07-13T10:12:04;101588.72;;;24.82;98.76
58955;BME280;45815;52.334;5.024;2023-07-13T10:14:30;101589.34;;;24.92;97.70
58955;BME280;45815;52.334;5.024;2023-07-13T10:16:59;101590.06;;;24.98;97.87
58955;BME280;45815;52.334;5.024;2023-07-13T10:19:32;101583.22;;;25.18;98.41
58955;BME280;45815;52.334;5.024;2023-07-13T10:22:09;101588.97;;;25.35;99.09
58955;BME280;45815;52.334;5.024;2023-07-13T10:24:39;101593.38;;;25.66;95.65
58955;BME280;45815;52.334;5.024;2023-07-13T10:27:51;101594.47;;;25.88;96.84
58955;BME280;45815;52.334;5.024;2023-07-13T10:30:27;101595.31;;;26.17;93.71
58955;BME280;45815;52.334;5.024;2023-07-13T10:32:58;101599.44;;;26.01;94.86
58955;BME280;45815;52.334;5.024;2023-07-13T10:35:26;101607.09;;;25.86;95.27
58955;BME280;45815;52.334;5.024;2023-07-13T10:40:33;101604.78;;;26.02;92.02
58955;BME280;45815;52.334;5.024;2023-07-13T10:43:07;101605.44;;;26.36;93.27
58955;BME280;45815;52.334;5.024;2023-07-13T10:45:39;101614.56;;;26.31;93.87
58955;BME280;45815;52.334;5.024;2023-07-13T10:48:06;101617.66;;;26.19;94.42
58955;BME280;45815;52.334;5.024;2023-07-13T10:50:37;101625.34;;;25.75;93.91
58955;BME280;45815;52.334;5.024;2023-07-13T10:53:28;101627.41;;;25.37;93.49
58955;BME280;45815;52.334;5.024;2023-07-13T10:56:02;101630.09;;;25.37;95.87
58955;BME280;45815;52.334;5.024;2023-07-13T10:58:36;101637.97;;;25.12;96.82
58955;BME280;45815;52.334;5.024;2023-07-13T11:03:46;101641.06;;;25.31;95.52
58955;BME280;45815;52.334;5.024;2023-07-13T11:09:18;101641.16;;;25.86;91.17
58955;BME280;45815;52.334;5.024;2023-07-13T11:11:44;101616.84;;;25.90;93.46
58955;BME280;45815;52.334;5.024;2023-07-13T11:16:52;101634.56;;;25.38;95.03
58955;BME280;45815;52.334;5.024;2023-07-13T11:27:42;101652.16;;;25.19;95.55
58955;BME280;45815;52.334;5.024;2023-07-13T11:30:13;101649.66;;;25.42;94.24
58955;BME280;45815;52.334;5.024;2023-07-13T11:32:43;101649.94;;;25.33;94.39
58955;BME280;45815;52.334;5.024;2023-07-13T11:35:18;101642.31;;;25.19;92.51
58955;BME280;45815;52.334;5.024;2023-07-13T11:37:47;101630.97;;;25.06;92.49
58955;BME280;45815;52.334;5.024;2023-07-13T11:40:18;101657.00;;;25.04;92.62
58955;BME280;45815;52.334;5.024;2023-07-13T11:42:44;101652.72;;;25.30;91.69
58955;BME280;45815;52.334;5.024;2023-07-13T11:45:27;101651.69;;;25.36;92.29
58955;BME280;45815;52.334;5.024;2023-07-13T11:47:54;101650.91;;;25.60;91.94
58955;BME280;45815;52.334;5.024;2023-07-13T11:50:24;101653.53;;;25.92;91.33
58955;BME280;45815;52.334;5.024;2023-07-13T11:52:52;101645.31;;;25.96;91.05
58955;BME280;45815;52.334;5.024;2023-07-13T11:55:21;101640.00;;;26.23;92.06
58955;BME280;45815;52.334;5.024;2023-07-13T11:57:58;101627.94;;;26.35;91.21
58955;BME280;45815;52.334;5.024;2023-07-13T12:00:28;101641.25;;;26.38;85.12
58955;BME280;45815;52.334;5.024;2023-07-13T12:03:04;101654.31;;;26.77;89.30
58955;BME280;45815;52.334;5.024;2023-07-13T12:05:31;101656.53;;;27.14;88.15
58955;BME280;45815;52.334;5.024;2023-07-13T12:07:57;101648.91;;;27.27;88.91
58955;BME280;45815;52.334;5.024;2023-07-13T12:10:28;101644.69;;;27.18;87.48
58955;BME280;45815;52.334;5.024;2023-07-13T12:15:24;101651.19;;;27.12;89.03
58955;BME280;45815;52.334;5.024;2023-07-13T12:17:55;101645.66;;;27.41;88.12
58955;BME280;45815;52.334;5.024;2023-07-13T12:20:26;101655.47;;;27.43;88.20
58955;BME280;45815;52.334;5.024;2023-07-13T12:22:52;101648.47;;;27.14;87.47
58955;BME280;45815;52.334;5.024;2023-07-13T12:25:19;101651.19;;;27.38;89.01
58955;BME280;45815;52.334;5.024;2023-07-13T12:27:50;101654.19;;;27.53;86.52
58955;BME280;45815;52.334;5.024;2023-07-13T12:30:29;101645.88;;;27.82;83.69
58955;BME280;45815;52.334;5.024;2023-07-13T12:33:08;101653.59;;;27.45;84.08
58955;BME280;45815;52.334;5.024;2023-07-13T12:35:46;101654.34;;;27.72;87.83
58955;BME280;45815;52.334;5.024;2023-07-13T12:38:12;101646.63;;;28.07;86.18
58955;BME280;45815;52.334;5.024;2023-07-13T12:40:39;101663.03;;;28.03;86.63
58955;BME280;45815;52.334;5.024;2023-07-13T12:43:11;101654.03;;;28.02;82.67
58955;BME280;45815;52.334;5.024;2023-07-13T12:45:38;101652.78;;;28.11;83.31
58955;BME280;45815;52.334;5.024;2023-07-13T12:48:15;101657.44;;;27.62;78.27
58955;BME280;45815;52.334;5.024;2023-07-13T12:50:46;101665.47;;;28.09;83.36
58955;BME280;45815;52.334;5.024;2023-07-13T12:53:14;101642.88;;;28.33;83.00
58955;BME280;45815;52.334;5.024;2023-07-13T12:55:45;101648.41;;;28.08;83.31
58955;BME280;45815;52.334;5.024;2023-07-13T12:58:27;101655.13;;;28.20;82.48
58955;BME280;45815;52.334;5.024;2023-07-13T13:00:55;101650.47;;;28.44;83.32
58955;BME280;45815;52.334;5.024;2023-07-13T13:03:39;101655.66;;;28.28;80.67
58955;BME280;45815;52.334;5.024;2023-07-13T13:06:17;101653.50;;;28.58;81.12
58955;BME280;45815;52.334;5.024;2023-07-13T13:08:47;101657.00;;;28.60;78.82
58955;BME280;45815;52.334;5.024;2023-07-13T13:11:14;101654.00;;;28.68;80.32
58955;BME280;45815;52.334;5.024;2023-07-13T13:13:42;101661.13;;;28.49;80.43
58955;BME280;45815;52.334;5.024;2023-07-13T13:18:55;101667.84;;;28.16;81.68
58955;BME280;45815;52.334;5.024;2023-07-13T13:21:25;101661.41;;;27.98;82.01
58955;BME280;45815;52.334;5.024;2023-07-13T13:23:52;101671.19;;;28.01;83.59
58955;BME280;45815;52.334;5.024;2023-07-13T13:26:19;101681.03;;;28.02;81.74
58955;BME280;45815;52.334;5.024;2023-07-13T13:28:46;101673.38;;;28.13;80.27